sensor_id;sensor_type;location;lat;lon;timestamp;P1;durP1;ratioP1;P2;durP2;ratioP2
11125;SDS011;5617;54.046;10.676;2024-03-07T00:01:39;8.80;;;5.90;;
11125;SDS011;5617;54.046;10.676;2024-03-07T00:03:49;11.70;;;5.90;;
11125;SDS011;5617;54.046;10.676;2024-03-07T00:05:58;11.57;;;7.27;;
11125;SDS011;5617;54.046;10.676;2024-03-07T00:08:08;9.53;;;6.20;;
11125;SDS011;5617;54.046;10.676;2024-03-07T00:10:17;13.37;;;7.00;;
11125;SDS011;5617;54.046;10.676;2024-03-07T00:12:34;11.37;;;6.90;;
11125;SDS011;5617;54.046;10.676;2024-03-07T00:14:42;9.80;;;6.03;;
11125;SDS011;5617;54.046;10.676;2024-03-07T00:16:52;8.97;;;6.27;;
11125;SDS011;5617;54.046;10.676;2024-03-07T00:19:09;9.27;;;6.83;;
11125;SDS011;5617;54.046;10.676;2024-03-07T00:21:20;11.17;;;6.80;;
11125;SDS011;5617;54.046;10.676;2024-03-07T00:23:31;10.97;;;6.83;;
11125;SDS011;5617;54.046;10.676;2024-03-07T00:25:41;11.20;;;6.20;;
11125;SDS011;5617;54.046;10.676;2024-03-07T00:27:57;8.73;;;5.97;;
11125;SDS011;5617;54.046;10.676;2024-03-07T00:30:11;7.87;;;5.50;;
11125;SDS011;5617;54.046;10.676;2024-03-07T00:32:23;10.40;;;6.40;;
11125;SDS011;5617;54.046;10.676;2024-03-07T00:34:34;8.20;;;5.73;;
11125;SDS011;5617;54.046;10.676;2024-03-07T00:36:42;7.87;;;5.90;;
11125;SDS011;5617;54.046;10.676;2024-03-07T00:38:51;11.53;;;5.67;;
11125;SDS011;5617;54.046;10.676;2024-03-07T00:41:00;8.00;;;6.30;;
11125;SDS011;5617;54.046;10.676;2024-03-07T00:43:10;10.50;;;5.33;;
11125;SDS011;5617;54.046;10.676;2024-03-07T00:45:24;9.53;;;5.87;;
11125;SDS011;5617;54.046;10.676;2024-03-07T00:47:32;6.03;;;4.33;;
11125;SDS011;5617;54.046;10.676;2024-03-07T00:49:42;7.67;;;5.77;;
11125;SDS011;5617;54.046;10.676;2024-03-07T00:51:52;9.20;;;6.10;;
11125;SDS011;5617;54.046;10.676;2024-03-07T00:54:03;7.50;;;3.87;;
11125;SDS011;5617;54.046;10.676;2024-03-07T00:56:11;8.67;;;5.43;;
11125;SDS011;5617;54.046;10.676;2024-03-07T00:58:23;7.23;;;4.77;;
11125;SDS011;5617;54.046;10.676;2024-03-07T01:00:31;17.90;;;4.90;;
11125;SDS011;5617;54.046;10.676;2024-03-07T01:02:45;8.10;;;5.10;;
11125;SDS011;5617;54.046;10.676;2024-03-07T01:04:53;6.97;;;4.50;;
11125;SDS011;5617;54.046;10.676;2024-03-07T01:07:03;9.23;;;5.50;;
11125;SDS011;5617;54.046;10.676;2024-03-07T01:09:11;5.40;;;2.97;;
11125;SDS011;5617;54.046;10.676;2024-03-07T01:11:24;8.70;;;5.50;;
11125;SDS011;5617;54.046;10.676;2024-03-07T01:13:33;5.73;;;4.30;;
11125;SDS011;5617;54.046;10.676;2024-03-07T01:15:42;8.47;;;4.70;;
11125;SDS011;5617;54.046;10.676;2024-03-07T01:17:56;5.30;;;4.30;;
11125;SDS011;5617;54.046;10.676;2024-03-07T01:20:09;8.00;;;5.17;;
11125;SDS011;5617;54.046;10.676;2024-03-07T01:22:19;8.23;;;5.03;;
11125;SDS011;5617;54.046;10.676;2024-03-07T01:24:27;8.33;;;5.43;;
11125;SDS011;5617;54.046;10.676;2024-03-07T01:26:34;9.57;;;4.77;;
11125;SDS011;5617;54.046;10.676;2024-03-07T01:28:46;7.00;;;4.77;;
11125;SDS011;5617;54.046;10.676;2024-03-07T01:30:58;6.63;;;4.90;;
11125;SDS011;5617;54.046;10.676;2024-03-07T01:33:10;7.60;;;4.50;;
11125;SDS011;5617;54.046;10.676;2024-03-07T01:35:20;8.03;;;5.10;;
11125;SDS011;5617;54.046;10.676;2024-03-07T01:37:29;6.97;;;5.27;;
11125;SDS011;5617;54.046;10.676;2024-03-07T01:39:39;6.57;;;4.57;;
11125;SDS011;5617;54.046;10.676;2024-03-07T01:41:48;8.33;;;5.63;;
11125;SDS011;5617;54.046;10.676;2024-03-07T01:43:58;6.17;;;4.57;;
11125;SDS011;5617;54.046;10.676;2024-03-07T01:46:08;7.10;;;4.80;;
11125;SDS011;5617;54.046;10.676;2024-03-07T01:48:18;7.77;;;5.30;;
11125;SDS011;5617;54.046;10.676;2024-03-07T01:50:35;7.67;;;5.33;;
11125;SDS011;5617;54.046;10.676;2024-03-07T01:52:49;8.83;;;5.57;;
11125;SDS011;5617;54.046;10.676;2024-03-07T01:54:59;8.17;;;5.90;;
11125;SDS011;5617;54.046;10.676;2024-03-07T01:57:18;7.37;;;5.03;;
11125;SDS011;5617;54.046;10.676;2024-03-07T01:59:29;8.47;;;5.30;;
11125;SDS011;5617;54.046;10.676;2024-03-07T02:01:40;7.10;;;4.13;;
11125;SDS011;5617;54.046;10.676;2024-03-07T02:03:49;9.17;;;5.73;;
11125;SDS011;5617;54.046;10.676;2024-03-07T02:06:00;6.67;;;5.40;;
11125;SDS011;5617;54.046;10.676;2024-03-07T02:08:10;8.97;;;5.13;;
11125;SDS011;5617;54.046;10.676;2024-03-07T02:10:25;8.37;;;5.30;;
11125;SDS011;5617;54.046;10.676;2024-03-07T02:12:33;7.63;;;5.20;;
11125;SDS011;5617;54.046;10.676;2024-03-07T02:14:43;10.00;;;5.77;;
11125;SDS011;5617;54.046;10.676;2024-03-07T02:16:53;8.60;;;5.90;;
11125;SDS011;5617;54.046;10.676;2024-03-07T02:19:09;7.67;;;5.20;;
11125;SDS011;5617;54.046;10.676;2024-03-07T02:21:21;5.93;;;4.90;;
11125;SDS011;5617;54.046;10.676;2024-03-07T02:23:30;7.97;;;5.30;;
11125;SDS011;5617;54.046;10.676;2024-03-07T02:25:40;7.70;;;6.13;;
11125;SDS011;5617;54.046;10.676;2024-03-07T02:27:50;4.93;;;3.50;;
11125;SDS011;5617;54.046;10.676;2024-03-07T02:29:59;5.53;;;4.87;;
11125;SDS011;5617;54.046;10.676;2024-03-07T02:32:23;7.30;;;4.77;;
11125;SDS011;5617;54.046;10.676;2024-03-07T02:34:34;8.60;;;5.37;;
11125;SDS011;5617;54.046;10.676;2024-03-07T02:36:47;8.70;;;5.33;;
11125;SDS011;5617;54.046;10.676;2024-03-07T02:38:57;7.90;;;4.50;;
11125;SDS011;5617;54.046;10.676;2024-03-07T02:41:06;8.00;;;5.53;;
11125;SDS011;5617;54.046;10.676;2024-03-07T02:43:14;10.70;;;6.00;;
11125;SDS011;5617;54.046;10.676;2024-03-07T02:45:23;8.63;;;6.07;;
11125;SDS011;5617;54.046;10.676;2024-03-07T02:47:32;8.07;;;5.50;;
11125;SDS011;5617;54.046;10.676;2024-03-07T02:49:40;8.33;;;6.20;;
11125;SDS011;5617;54.046;10.676;2024-03-07T02:51:50;7.43;;;5.87;;
11125;SDS011;5617;54.046;10.676;2024-03-07T02:54:01;5.93;;;5.23;;
11125;SDS011;5617;54.046;10.676;2024-03-07T02:56:15;7.17;;;5.57;;
11125;SDS011;5617;54.046;10.676;2024-03-07T02:58:26;8.97;;;5.77;;
11125;SDS011;5617;54.046;10.676;2024-03-07T03:00:34;6.83;;;4.77;;
11125;SDS011;5617;54.046;10.676;2024-03-07T03:02:43;10.17;;;5.90;;
11125;SDS011;5617;54.046;10.676;2024-03-07T03:04:52;7.13;;;5.47;;
11125;SDS011;5617;54.046;10.676;2024-03-07T03:07:03;6.87;;;5.63;;
11125;SDS011;5617;54.046;10.676;2024-03-07T03:09:12;7.07;;;5.07;;
11125;SDS011;5617;54.046;10.676;2024-03-07T03:11:24;7.53;;;6.13;;
11125;SDS011;5617;54.046;10.676;2024-03-07T03:13:34;8.13;;;6.00;;
11125;SDS011;5617;54.046;10.676;2024-03-07T03:15:42;8.07;;;5.53;;
11125;SDS011;5617;54.046;10.676;2024-03-07T03:17:53;6.43;;;4.70;;
11125;SDS011;5617;54.046;10.676;2024-03-07T03:20:02;6.60;;;5.57;;
11125;SDS011;5617;54.046;10.676;2024-03-07T03:22:23;8.07;;;5.10;;
11125;SDS011;5617;54.046;10.676;2024-03-07T03:24:34;6.97;;;4.70;;
11125;SDS011;5617;54.046;10.676;2024-03-07T03:26:42;7.93;;;5.87;;
11125;SDS011;5617;54.046;10.676;2024-03-07T03:28:53;7.83;;;5.17;;
11125;SDS011;5617;54.046;10.676;2024-03-07T03:31:00;8.20;;;5.53;;
11125;SDS011;5617;54.046;10.676;2024-03-07T03:33:11;6.67;;;5.33;;
11125;SDS011;5617;54.046;10.676;2024-03-07T03:35:19;10.27;;;5.70;;
11125;SDS011;5617;54.046;10.676;2024-03-07T03:37:29;8.57;;;5.93;;
11125;SDS011;5617;54.046;10.676;2024-03-07T03:39:37;9.30;;;6.67;;
11125;SDS011;5617;54.046;10.676;2024-03-07T03:41:46;7.70;;;6.10;;
11125;SDS011;5617;54.046;10.676;2024-03-07T03:43:55;7.83;;;6.37;;
11125;SDS011;5617;54.046;10.676;2024-03-07T03:46:03;6.67;;;5.27;;
11125;SDS011;5617;54.046;10.676;2024-03-07T03:48:12;7.97;;;5.83;;
11125;SDS011;5617;54.046;10.676;2024-03-07T03:50:23;8.70;;;5.80;;
11125;SDS011;5617;54.046;10.676;2024-03-07T03:52:33;9.97;;;6.10;;
11125;SDS011;5617;54.046;10.676;2024-03-07T03:54:42;8.07;;;6.30;;
11125;SDS011;5617;54.046;10.676;2024-03-07T03:56:50;7.57;;;5.60;;
11125;SDS011;5617;54.046;10.676;2024-03-07T03:58:59;9.13;;;6.13;;
11125;SDS011;5617;54.046;10.676;2024-03-07T04:01:07;9.77;;;5.80;;
11125;SDS011;5617;54.046;10.676;2024-03-07T04:03:20;4.83;;;3.40;;
11125;SDS011;5617;54.046;10.676;2024-03-07T04:05:28;6.30;;;4.30;;
11125;SDS011;5617;54.046;10.676;2024-03-07T04:07:38;6.47;;;5.00;;
11125;SDS011;5617;54.046;10.676;2024-03-07T04:09:48;4.57;;;4.07;;
11125;SDS011;5617;54.046;10.676;2024-03-07T04:11:57;6.37;;;5.60;;
11125;SDS011;5617;54.046;10.676;2024-03-07T04:14:06;6.70;;;5.17;;
11125;SDS011;5617;54.046;10.676;2024-03-07T04:16:15;6.80;;;5.53;;
11125;SDS011;5617;54.046;10.676;2024-03-07T04:18:23;6.90;;;5.73;;
11125;SDS011;5617;54.046;10.676;2024-03-07T04:20:33;7.87;;;6.30;;
11125;SDS011;5617;54.046;10.676;2024-03-07T04:22:43;7.57;;;6.20;;
11125;SDS011;5617;54.046;10.676;2024-03-07T04:24:51;8.87;;;6.27;;
11125;SDS011;5617;54.046;10.676;2024-03-07T04:27:02;7.43;;;6.10;;
11125;SDS011;5617;54.046;10.676;2024-03-07T04:29:15;8.00;;;6.50;;
11125;SDS011;5617;54.046;10.676;2024-03-07T04:31:23;8.90;;;6.73;;
11125;SDS011;5617;54.046;10.676;2024-03-07T04:33:36;9.60;;;6.93;;
11125;SDS011;5617;54.046;10.676;2024-03-07T04:35:45;8.50;;;6.47;;
11125;SDS011;5617;54.046;10.676;2024-03-07T04:37:56;8.00;;;5.37;;
11125;SDS011;5617;54.046;10.676;2024-03-07T04:40:04;9.20;;;6.50;;
11125;SDS011;5617;54.046;10.676;2024-03-07T04:42:27;9.47;;;4.10;;
11125;SDS011;5617;54.046;10.676;2024-03-07T04:44:36;8.83;;;5.83;;
11125;SDS011;5617;54.046;10.676;2024-03-07T04:46:46;10.17;;;6.20;;
11125;SDS011;5617;54.046;10.676;2024-03-07T04:48:56;9.23;;;5.97;;
11125;SDS011;5617;54.046;10.676;2024-03-07T04:51:05;7.40;;;6.13;;
11125;SDS011;5617;54.046;10.676;2024-03-07T04:53:16;6.87;;;5.70;;
11125;SDS011;5617;54.046;10.676;2024-03-07T04:55:25;9.93;;;6.27;;
11125;SDS011;5617;54.046;10.676;2024-03-07T04:57:35;6.63;;;4.87;;
11125;SDS011;5617;54.046;10.676;2024-03-07T04:59:44;8.83;;;5.57;;
11125;SDS011;5617;54.046;10.676;2024-03-07T05:01:54;7.33;;;5.97;;
11125;SDS011;5617;54.046;10.676;2024-03-07T05:04:03;9.30;;;5.80;;
11125;SDS011;5617;54.046;10.676;2024-03-07T05:06:11;9.27;;;6.33;;
11125;SDS011;5617;54.046;10.676;2024-03-07T05:08:21;7.77;;;4.83;;
11125;SDS011;5617;54.046;10.676;2024-03-07T05:10:30;9.30;;;5.80;;
11125;SDS011;5617;54.046;10.676;2024-03-07T05:12:39;7.13;;;6.27;;
11125;SDS011;5617;54.046;10.676;2024-03-07T05:14:47;8.63;;;6.03;;
11125;SDS011;5617;54.046;10.676;2024-03-07T05:16:56;9.43;;;6.50;;
11125;SDS011;5617;54.046;10.676;2024-03-07T05:19:12;7.47;;;6.50;;
11125;SDS011;5617;54.046;10.676;2024-03-07T05:21:20;8.53;;;6.60;;
11125;SDS011;5617;54.046;10.676;2024-03-07T05:23:45;8.30;;;6.23;;
11125;SDS011;5617;54.046;10.676;2024-03-07T05:25:55;9.97;;;6.17;;
11125;SDS011;5617;54.046;10.676;2024-03-07T05:28:04;8.33;;;5.83;;
11125;SDS011;5617;54.046;10.676;2024-03-07T05:30:13;8.33;;;5.97;;
11125;SDS011;5617;54.046;10.676;2024-03-07T05:32:24;7.97;;;6.53;;
11125;SDS011;5617;54.046;10.676;2024-03-07T05:34:35;8.97;;;6.80;;
11125;SDS011;5617;54.046;10.676;2024-03-07T05:36:47;9.57;;;7.00;;
11125;SDS011;5617;54.046;10.676;2024-03-07T05:38:57;8.03;;;6.30;;
11125;SDS011;5617;54.046;10.676;2024-03-07T05:41:08;9.60;;;7.07;;
11125;SDS011;5617;54.046;10.676;2024-03-07T05:43:20;9.30;;;6.60;;
11125;SDS011;5617;54.046;10.676;2024-03-07T05:45:28;7.90;;;6.47;;
11125;SDS011;5617;54.046;10.676;2024-03-07T05:47:42;9.30;;;6.53;;
11125;SDS011;5617;54.046;10.676;2024-03-07T05:49:51;9.13;;;6.30;;
11125;SDS011;5617;54.046;10.676;2024-03-07T05:51:58;7.67;;;5.47;;
11125;SDS011;5617;54.046;10.676;2024-03-07T05:54:09;8.90;;;6.37;;
11125;SDS011;5617;54.046;10.676;2024-03-07T05:56:20;9.50;;;6.97;;
11125;SDS011;5617;54.046;10.676;2024-03-07T05:58:29;8.47;;;6.53;;
11125;SDS011;5617;54.046;10.676;2024-03-07T06:00:38;7.57;;;5.80;;
11125;SDS011;5617;54.046;10.676;2024-03-07T06:02:49;10.20;;;7.07;;
11125;SDS011;5617;54.046;10.676;2024-03-07T06:05:00;8.87;;;6.23;;
11125;SDS011;5617;54.046;10.676;2024-03-07T06:07:10;10.27;;;7.10;;
11125;SDS011;5617;54.046;10.676;2024-03-07T06:09:21;10.70;;;6.70;;
11125;SDS011;5617;54.046;10.676;2024-03-07T06:11:30;7.80;;;6.67;;
11125;SDS011;5617;54.046;10.676;2024-03-07T06:13:40;9.00;;;6.80;;
11125;SDS011;5617;54.046;10.676;2024-03-07T06:15:48;10.13;;;7.03;;
11125;SDS011;5617;54.046;10.676;2024-03-07T06:17:56;9.40;;;7.20;;
11125;SDS011;5617;54.046;10.676;2024-03-07T06:20:06;9.97;;;7.47;;
11125;SDS011;5617;54.046;10.676;2024-03-07T06:22:31;9.93;;;7.10;;
11125;SDS011;5617;54.046;10.676;2024-03-07T06:24:41;10.43;;;7.43;;
11125;SDS011;5617;54.046;10.676;2024-03-07T06:26:54;11.43;;;8.00;;
11125;SDS011;5617;54.046;10.676;2024-03-07T06:29:09;10.93;;;7.67;;
11125;SDS011;5617;54.046;10.676;2024-03-07T06:31:18;11.20;;;7.30;;
11125;SDS011;5617;54.046;10.676;2024-03-07T06:33:27;8.87;;;7.30;;
11125;SDS011;5617;54.046;10.676;2024-03-07T06:35:35;11.63;;;7.53;;
11125;SDS011;5617;54.046;10.676;2024-03-07T06:37:47;10.33;;;7.53;;
11125;SDS011;5617;54.046;10.676;2024-03-07T06:39:57;9.00;;;7.67;;
11125;SDS011;5617;54.046;10.676;2024-03-07T06:42:06;10.13;;;7.77;;
11125;SDS011;5617;54.046;10.676;2024-03-07T06:44:15;9.43;;;7.67;;
11125;SDS011;5617;54.046;10.676;2024-03-07T06:46:24;10.90;;;8.27;;
11125;SDS011;5617;54.046;10.676;2024-03-07T06:48:32;9.27;;;7.70;;
11125;SDS011;5617;54.046;10.676;2024-03-07T06:50:42;10.10;;;7.60;;
11125;SDS011;5617;54.046;10.676;2024-03-07T06:52:51;10.07;;;7.87;;
11125;SDS011;5617;54.046;10.676;2024-03-07T06:55:02;11.90;;;7.93;;
11125;SDS011;5617;54.046;10.676;2024-03-07T06:57:11;9.90;;;7.97;;
11125;SDS011;5617;54.046;10.676;2024-03-07T06:59:22;10.70;;;8.47;;
11125;SDS011;5617;54.046;10.676;2024-03-07T07:01:34;10.17;;;8.53;;
11125;SDS011;5617;54.046;10.676;2024-03-07T07:03:43;10.90;;;8.03;;
11125;SDS011;5617;54.046;10.676;2024-03-07T07:05:54;11.30;;;8.53;;
11125;SDS011;5617;54.046;10.676;2024-03-07T07:08:04;11.83;;;8.47;;
11125;SDS011;5617;54.046;10.676;2024-03-07T07:10:29;9.40;;;7.47;;
11125;SDS011;5617;54.046;10.676;2024-03-07T07:12:38;12.60;;;7.93;;
11125;SDS011;5617;54.046;10.676;2024-03-07T07:14:49;12.83;;;8.90;;
11125;SDS011;5617;54.046;10.676;2024-03-07T07:17:03;14.53;;;8.77;;
11125;SDS011;5617;54.046;10.676;2024-03-07T07:19:19;11.87;;;8.10;;
11125;SDS011;5617;54.046;10.676;2024-03-07T07:21:28;12.73;;;8.80;;
11125;SDS011;5617;54.046;10.676;2024-03-07T07:23:36;12.90;;;9.43;;
11125;SDS011;5617;54.046;10.676;2024-03-07T07:25:47;11.83;;;9.40;;
11125;SDS011;5617;54.046;10.676;2024-03-07T07:27:56;11.27;;;8.77;;
11125;SDS011;5617;54.046;10.676;2024-03-07T07:30:05;13.77;;;9.57;;
11125;SDS011;5617;54.046;10.676;2024-03-07T07:32:16;14.60;;;8.90;;
11125;SDS011;5617;54.046;10.676;2024-03-07T07:34:25;14.40;;;9.83;;
11125;SDS011;5617;54.046;10.676;2024-03-07T07:36:33;12.10;;;9.03;;
11125;SDS011;5617;54.046;10.676;2024-03-07T07:38:42;13.20;;;9.40;;
11125;SDS011;5617;54.046;10.676;2024-03-07T07:40:52;11.70;;;9.60;;
11125;SDS011;5617;54.046;10.676;2024-03-07T07:43:01;11.63;;;9.33;;
11125;SDS011;5617;54.046;10.676;2024-03-07T07:45:10;12.60;;;9.40;;
11125;SDS011;5617;54.046;10.676;2024-03-07T07:47:21;12.80;;;9.77;;
11125;SDS011;5617;54.046;10.676;2024-03-07T07:49:30;12.23;;;8.40;;
11125;SDS011;5617;54.046;10.676;2024-03-07T07:51:40;10.53;;;8.47;;
11125;SDS011;5617;54.046;10.676;2024-03-07T07:53:48;14.10;;;10.03;;
11125;SDS011;5617;54.046;10.676;2024-03-07T07:55:58;12.13;;;9.07;;
11125;SDS011;5617;54.046;10.676;2024-03-07T07:58:18;11.03;;;7.67;;
11125;SDS011;5617;54.046;10.676;2024-03-07T08:00:28;12.90;;;9.43;;
11125;SDS011;5617;54.046;10.676;2024-03-07T08:02:38;12.00;;;10.00;;
11125;SDS011;5617;54.046;10.676;2024-03-07T08:04:48;13.30;;;9.77;;
11125;SDS011;5617;54.046;10.676;2024-03-07T08:06:57;13.80;;;8.70;;
11125;SDS011;5617;54.046;10.676;2024-03-07T08:09:06;12.03;;;9.50;;
11125;SDS011;5617;54.046;10.676;2024-03-07T08:11:28;12.00;;;8.77;;
11125;SDS011;5617;54.046;10.676;2024-03-07T08:13:36;10.70;;;8.57;;
11125;SDS011;5617;54.046;10.676;2024-03-07T08:15:45;12.97;;;9.33;;
11125;SDS011;5617;54.046;10.676;2024-03-07T08:17:54;11.20;;;7.93;;
11125;SDS011;5617;54.046;10.676;2024-03-07T08:20:03;14.00;;;9.57;;
11125;SDS011;5617;54.046;10.676;2024-03-07T08:22:20;13.60;;;8.80;;
11125;SDS011;5617;54.046;10.676;2024-03-07T08:24:29;11.27;;;8.77;;
11125;SDS011;5617;54.046;10.676;2024-03-07T08:26:40;11.03;;;8.00;;
11125;SDS011;5617;54.046;10.676;2024-03-07T08:28:51;12.83;;;9.83;;
11125;SDS011;5617;54.046;10.676;2024-03-07T08:31:00;13.40;;;10.10;;
11125;SDS011;5617;54.046;10.676;2024-03-07T08:33:09;12.00;;;9.67;;
11125;SDS011;5617;54.046;10.676;2024-03-07T08:35:21;12.70;;;10.17;;
11125;SDS011;5617;54.046;10.676;2024-03-07T08:37:30;12.63;;;7.83;;
11125;SDS011;5617;54.046;10.676;2024-03-07T08:39:41;14.50;;;10.37;;
11125;SDS011;5617;54.046;10.676;2024-03-07T08:41:50;14.00;;;10.47;;
11125;SDS011;5617;54.046;10.676;2024-03-07T08:43:59;16.23;;;8.97;;
11125;SDS011;5617;54.046;10.676;2024-03-07T08:46:09;10.97;;;7.77;;
11125;SDS011;5617;54.046;10.676;2024-03-07T08:48:18;9.87;;;8.23;;
11125;SDS011;5617;54.046;10.676;2024-03-07T08:50:27;16.27;;;11.60;;
11125;SDS011;5617;54.046;10.676;2024-03-07T08:52:37;17.20;;;12.47;;
11125;SDS011;5617;54.046;10.676;2024-03-07T08:54:46;14.90;;;10.07;;
11125;SDS011;5617;54.046;10.676;2024-03-07T08:56:57;16.67;;;12.27;;
11125;SDS011;5617;54.046;10.676;2024-03-07T08:59:07;16.30;;;10.37;;
11125;SDS011;5617;54.046;10.676;2024-03-07T09:01:22;15.90;;;10.27;;
11125;SDS011;5617;54.046;10.676;2024-03-07T09:03:31;16.97;;;10.07;;
11125;SDS011;5617;54.046;10.676;2024-03-07T09:05:40;19.57;;;12.87;;
11125;SDS011;5617;54.046;10.676;2024-03-07T09:07:50;19.70;;;14.20;;
11125;SDS011;5617;54.046;10.676;2024-03-07T09:09:59;19.80;;;13.70;;
11125;SDS011;5617;54.046;10.676;2024-03-07T09:12:12;16.77;;;11.63;;
11125;SDS011;5617;54.046;10.676;2024-03-07T09:14:20;17.03;;;12.07;;
11125;SDS011;5617;54.046;10.676;2024-03-07T09:16:29;11.87;;;8.13;;
11125;SDS011;5617;54.046;10.676;2024-03-07T09:18:36;19.70;;;14.57;;
11125;SDS011;5617;54.046;10.676;2024-03-07T09:20:46;17.37;;;11.17;;
11125;SDS011;5617;54.046;10.676;2024-03-07T09:22:55;15.87;;;11.90;;
11125;SDS011;5617;54.046;10.676;2024-03-07T09:25:04;17.03;;;12.07;;
11125;SDS011;5617;54.046;10.676;2024-03-07T09:27:15;16.07;;;11.67;;
11125;SDS011;5617;54.046;10.676;2024-03-07T09:29:26;17.13;;;11.10;;
11125;SDS011;5617;54.046;10.676;2024-03-07T09:31:35;13.70;;;10.30;;
11125;SDS011;5617;54.046;10.676;2024-03-07T09:33:46;13.57;;;10.63;;
11125;SDS011;5617;54.046;10.676;2024-03-07T09:35:56;15.40;;;11.33;;
11125;SDS011;5617;54.046;10.676;2024-03-07T09:38:08;15.30;;;11.23;;
11125;SDS011;5617;54.046;10.676;2024-03-07T09:40:18;9.50;;;7.60;;
11125;SDS011;5617;54.046;10.676;2024-03-07T09:42:34;12.70;;;8.77;;
11125;SDS011;5617;54.046;10.676;2024-03-07T09:44:45;13.00;;;9.57;;
11125;SDS011;5617;54.046;10.676;2024-03-07T09:46:55;12.27;;;9.60;;
11125;SDS011;5617;54.046;10.676;2024-03-07T09:49:05;13.73;;;9.07;;
11125;SDS011;5617;54.046;10.676;2024-03-07T09:51:15;13.47;;;10.83;;
11125;SDS011;5617;54.046;10.676;2024-03-07T09:53:25;14.20;;;8.97;;
11125;SDS011;5617;54.046;10.676;2024-03-07T09:55:35;13.30;;;9.90;;
11125;SDS011;5617;54.046;10.676;2024-03-07T09:57:47;13.40;;;9.93;;
11125;SDS011;5617;54.046;10.676;2024-03-07T09:59:57;13.77;;;10.97;;
11125;SDS011;5617;54.046;10.676;2024-03-07T10:02:14;14.00;;;10.93;;
11125;SDS011;5617;54.046;10.676;2024-03-07T10:04:37;12.63;;;10.00;;
11125;SDS011;5617;54.046;10.676;2024-03-07T10:06:51;14.60;;;10.87;;
11125;SDS011;5617;54.046;10.676;2024-03-07T10:09:00;15.27;;;10.50;;
11125;SDS011;5617;54.046;10.676;2024-03-07T10:11:10;12.90;;;10.60;;
11125;SDS011;5617;54.046;10.676;2024-03-07T10:13:22;14.57;;;11.30;;
11125;SDS011;5617;54.046;10.676;2024-03-07T10:15:33;20.07;;;12.13;;
11125;SDS011;5617;54.046;10.676;2024-03-07T10:17:44;13.30;;;9.63;;
11125;SDS011;5617;54.046;10.676;2024-03-07T10:19:57;14.80;;;11.13;;
11125;SDS011;5617;54.046;10.676;2024-03-07T10:22:12;14.33;;;11.00;;
11125;SDS011;5617;54.046;10.676;2024-03-07T10:24:22;14.13;;;11.40;;
11125;SDS011;5617;54.046;10.676;2024-03-07T10:26:32;14.20;;;11.10;;
11125;SDS011;5617;54.046;10.676;2024-03-07T10:28:43;9.53;;;6.40;;
11125;SDS011;5617;54.046;10.676;2024-03-07T10:30:52;14.13;;;9.20;;
11125;SDS011;5617;54.046;10.676;2024-03-07T10:33:00;12.43;;;9.67;;
11125;SDS011;5617;54.046;10.676;2024-03-07T10:35:09;12.90;;;8.80;;
11125;SDS011;5617;54.046;10.676;2024-03-07T10:37:19;13.23;;;10.53;;
11125;SDS011;5617;54.046;10.676;2024-03-07T10:39:28;13.33;;;7.00;;
11125;SDS011;5617;54.046;10.676;2024-03-07T10:41:40;13.97;;;9.17;;
11125;SDS011;5617;54.046;10.676;2024-03-07T10:43:55;11.33;;;7.37;;
11125;SDS011;5617;54.046;10.676;2024-03-07T10:46:09;8.80;;;6.53;;
11125;SDS011;5617;54.046;10.676;2024-03-07T10:48:19;9.20;;;6.87;;
11125;SDS011;5617;54.046;10.676;2024-03-07T10:50:38;13.77;;;10.10;;
11125;SDS011;5617;54.046;10.676;2024-03-07T10:52:54;14.63;;;9.90;;
11125;SDS011;5617;54.046;10.676;2024-03-07T10:55:08;11.93;;;10.27;;
11125;SDS011;5617;54.046;10.676;2024-03-07T10:57:26;13.73;;;10.47;;
11125;SDS011;5617;54.046;10.676;2024-03-07T10:59:49;13.03;;;10.60;;
11125;SDS011;5617;54.046;10.676;2024-03-07T11:01:59;14.87;;;10.67;;
11125;SDS011;5617;54.046;10.676;2024-03-07T11:04:19;11.90;;;9.33;;
11125;SDS011;5617;54.046;10.676;2024-03-07T11:06:31;14.50;;;8.90;;
11125;SDS011;5617;54.046;10.676;2024-03-07T11:08:41;13.20;;;11.13;;
11125;SDS011;5617;54.046;10.676;2024-03-07T11:10:51;12.17;;;9.40;;
11125;SDS011;5617;54.046;10.676;2024-03-07T11:13:07;13.10;;;10.10;;
11125;SDS011;5617;54.046;10.676;2024-03-07T11:15:20;12.03;;;9.10;;
11125;SDS011;5617;54.046;10.676;2024-03-07T11:17:29;12.20;;;8.90;;
11125;SDS011;5617;54.046;10.676;2024-03-07T11:19:40;11.40;;;9.00;;
11125;SDS011;5617;54.046;10.676;2024-03-07T11:21:50;12.13;;;9.60;;
11125;SDS011;5617;54.046;10.676;2024-03-07T11:24:00;11.63;;;9.40;;
11125;SDS011;5617;54.046;10.676;2024-03-07T11:26:13;9.43;;;6.33;;
11125;SDS011;5617;54.046;10.676;2024-03-07T11:28:28;8.53;;;6.57;;
11125;SDS011;5617;54.046;10.676;2024-03-07T11:30:40;14.47;;;10.13;;
11125;SDS011;5617;54.046;10.676;2024-03-07T11:32:50;14.07;;;9.77;;
11125;SDS011;5617;54.046;10.676;2024-03-07T11:35:03;12.03;;;9.97;;
11125;SDS011;5617;54.046;10.676;2024-03-07T11:37:17;13.10;;;9.47;;
11125;SDS011;5617;54.046;10.676;2024-03-07T11:39:40;11.93;;;8.53;;
11125;SDS011;5617;54.046;10.676;2024-03-07T11:41:50;11.00;;;6.93;;
11125;SDS011;5617;54.046;10.676;2024-03-07T11:44:01;11.33;;;9.37;;
11125;SDS011;5617;54.046;10.676;2024-03-07T11:46:13;11.87;;;9.93;;
11125;SDS011;5617;54.046;10.676;2024-03-07T11:48:25;10.73;;;8.70;;
11125;SDS011;5617;54.046;10.676;2024-03-07T11:50:34;12.83;;;10.77;;
11125;SDS011;5617;54.046;10.676;2024-03-07T11:52:43;14.87;;;9.93;;
11125;SDS011;5617;54.046;10.676;2024-03-07T11:54:53;14.13;;;9.97;;
11125;SDS011;5617;54.046;10.676;2024-03-07T11:57:12;10.37;;;8.17;;
11125;SDS011;5617;54.046;10.676;2024-03-07T11:59:24;12.07;;;8.70;;
11125;SDS011;5617;54.046;10.676;2024-03-07T12:01:40;10.70;;;7.33;;
11125;SDS011;5617;54.046;10.676;2024-03-07T12:03:49;11.40;;;8.67;;
11125;SDS011;5617;54.046;10.676;2024-03-07T12:06:05;12.50;;;9.57;;
11125;SDS011;5617;54.046;10.676;2024-03-07T12:08:16;13.50;;;10.17;;
11125;SDS011;5617;54.046;10.676;2024-03-07T12:10:26;9.87;;;8.57;;
11125;SDS011;5617;54.046;10.676;2024-03-07T12:12:35;13.47;;;9.63;;
11125;SDS011;5617;54.046;10.676;2024-03-07T12:14:46;11.67;;;7.47;;
11125;SDS011;5617;54.046;10.676;2024-03-07T12:16:59;13.33;;;9.47;;
11125;SDS011;5617;54.046;10.676;2024-03-07T12:19:07;12.90;;;9.67;;
11125;SDS011;5617;54.046;10.676;2024-03-07T12:21:18;13.13;;;10.03;;
11125;SDS011;5617;54.046;10.676;2024-03-07T12:23:27;6.27;;;5.33;;
11125;SDS011;5617;54.046;10.676;2024-03-07T12:25:37;10.10;;;7.20;;
11125;SDS011;5617;54.046;10.676;2024-03-07T12:27:47;11.77;;;9.30;;
11125;SDS011;5617;54.046;10.676;2024-03-07T12:29:57;11.03;;;7.70;;
11125;SDS011;5617;54.046;10.676;2024-03-07T12:32:12;12.80;;;9.70;;
11125;SDS011;5617;54.046;10.676;2024-03-07T12:34:21;14.33;;;9.83;;
11125;SDS011;5617;54.046;10.676;2024-03-07T12:36:38;12.70;;;9.77;;
11125;SDS011;5617;54.046;10.676;2024-03-07T12:38:53;12.37;;;8.90;;
11125;SDS011;5617;54.046;10.676;2024-03-07T12:41:01;12.03;;;9.33;;
11125;SDS011;5617;54.046;10.676;2024-03-07T12:43:14;10.73;;;9.33;;
11125;SDS011;5617;54.046;10.676;2024-03-07T12:45:25;11.10;;;9.93;;
11125;SDS011;5617;54.046;10.676;2024-03-07T12:47:38;12.47;;;9.67;;
11125;SDS011;5617;54.046;10.676;2024-03-07T12:49:47;12.23;;;8.80;;
11125;SDS011;5617;54.046;10.676;2024-03-07T12:51:56;11.23;;;8.57;;
11125;SDS011;5617;54.046;10.676;2024-03-07T12:54:06;12.20;;;9.10;;
11125;SDS011;5617;54.046;10.676;2024-03-07T12:56:16;9.50;;;7.60;;
11125;SDS011;5617;54.046;10.676;2024-03-07T12:58:27;10.97;;;9.20;;
11125;SDS011;5617;54.046;10.676;2024-03-07T13:00:37;12.40;;;8.80;;